Terminal Aerodrome Forecast
Issued by NWS

Home | Current Version | Previous Version | Text Only | Print | Product List | Glossary On
Versions: 1 2 3 4 5 6 7 8 9 10 11 12 13 14 15 16 17 18 19 20 21 22 23 24 25 26
000
FTUS43 KLSX 150819 AAC
TAFSUS
TAF AMD
KSUS 150819Z 1508/1606 20005KT 3SM BR FEW003 BKN022
      TEMPO 1508/1509 1SM BR VV003
     FM151000 20005KT P6SM OVC012
     FM151400 20009KT P6SM -SHRA OVC015
     FM151700 22012G20KT P6SM VCSH OVC050
     FM152100 25012KT P6SM -SHRA OVC050
     FM160000 30013G21KT P6SM OVC050=

USA.gov is the U.S. government's official web portal to all federal, state and local government web resources and services.